AntlersSmtRWIS Atmospheric Data: 10/11/2018 Summary  Detailed Graphs  Station List

  Temperature     Wind Precipitation Visibility
Timestamp Air Wet
Bulb
Dew-
point
24-hr
Max
24-hr
Min
Relative
Humidity
Atmospheric
Pressure
Avg
Speed
Avg
Dir
Spot
Speed
Spot
Dir
Max
Speed
Max
Dir
  Rate Situation Start End 1 hr 3 hr 6 hr 12 hr 24 hr   Situation
Date Time °F °F °F °F °F % in Hg mph ° mph ° mph ° Y/N in/hr text Date Time Date Time in in in in in mi text
10/11/2018 12:00 AM 53.42 45.68 37.40 75.02 49.82 54.0 Not Reported 0.00 SW 0.22 SE 1.79 N No 0.000 No Precipitation 10/06/2018 06:42 AM 10/06/2018 06:47 AM 0.000 0.000 0.000 0.000 0.000 x Unknown
10/11/2018 12:15 AM 52.52 45.14 37.04 75.02 49.82 55.0 Not Reported 0.67 SE 0.22 S 1.12 SW No 0.000 No Precipitation 10/06/2018 06:42 AM 10/06/2018 06:47 AM 0.000 0.000 0.000 0.000 0.000 x Unknown
10/11/2018 12:30 AM 53.06 45.50 37.04 75.02 49.82 54.0 Not Reported 0.45 SW 0.89 SW 2.01 SW No 0.000 No Precipitation 10/06/2018 06:42 AM 10/06/2018 06:47 AM 0.000 0.000 0.000 0.000 0.000 x Unknown
10/11/2018 12:45 AM 53.60 45.32 36.32 75.02 49.82 51.0 Not Reported 0.67 W 0.67 W 1.34 W No 0.000 No Precipitation 10/06/2018 06:42 AM 10/06/2018 06:47 AM 0.000 0.000 0.000 0.000 0.000 x Unknown
10/11/2018 01:00 AM 52.16 44.78 36.50 75.02 49.82 55.0 Not Reported 0.67 SE 0.00 E 1.34 S No 0.000 No Precipitation 10/06/2018 06:42 AM 10/06/2018 06:47 AM 0.000 0.000 0.000 0.000 0.000 x Unknown
10/11/2018 01:15 AM 51.62 44.60 36.68 75.02 49.82 56.0 Not Reported 0.89 SE 0.89 SE 1.79 SE No 0.000 No Precipitation 10/06/2018 06:42 AM 10/06/2018 06:47 AM 0.000 0.000 0.000 0.000 0.000 x Unknown
10/11/2018 01:30 AM 51.80 44.24 35.78 75.02 49.82 53.0 Not Reported 0.45 SW 0.22 NW 1.57 NE No 0.000 No Precipitation 10/06/2018 06:42 AM 10/06/2018 06:47 AM 0.000 0.000 0.000 0.000 0.000 x Unknown
10/11/2018 01:45 AM 52.34 44.24 35.06 75.02 49.82 51.0 Not Reported 1.57 NW 0.67 W 1.57 NW No 0.000 No Precipitation 10/06/2018 06:42 AM 10/06/2018 06:47 AM 0.000 0.000 0.000 0.000 0.000 x Unknown
10/11/2018 02:00 AM 51.80 43.88 34.88 75.02 49.82 52.0 Not Reported 1.34 W 0.89 W 2.46 NW No 0.000 No Precipitation 10/06/2018 06:42 AM 10/06/2018 06:47 AM 0.000 0.000 0.000 0.000 0.000 x Unknown
10/11/2018 02:15 AM 53.96 44.78 34.16 75.02 49.82 46.0 Not Reported 1.12 N 2.01 NW 2.46 N No 0.000 No Precipitation 10/06/2018 06:42 AM 10/06/2018 06:47 AM 0.000 0.000 0.000 0.000 0.000 x Unknown
10/11/2018 02:30 AM 53.96 44.78 33.98 75.02 49.82 46.0 Not Reported 2.01 NW 2.68 NW 4.03 NW No 0.000 No Precipitation 10/06/2018 06:42 AM 10/06/2018 06:47 AM 0.000 0.000 0.000 0.000 0.000 x Unknown
10/11/2018 02:45 AM 53.42 44.60 34.34 75.02 49.82 48.0 Not Reported 1.79 NW 0.45 SW 4.03 N No 0.000 No Precipitation 10/06/2018 06:42 AM 10/06/2018 06:47 AM 0.000 0.000 0.000 0.000 0.000 x Unknown
10/11/2018 03:00 AM 53.60 44.42 33.44 75.02 49.82 46.0 Not Reported 3.80 NW 4.92 NW 5.14 N No 0.000 No Precipitation 10/06/2018 06:42 AM 10/06/2018 06:47 AM 0.000 0.000 0.000 0.000 0.000 x Unknown
10/11/2018 03:15 AM 54.14 44.60 33.26 75.02 49.82 45.0 Not Reported 3.36 NW 3.80 NW 5.82 NW No 0.000 No Precipitation 10/06/2018 06:42 AM 10/06/2018 06:47 AM 0.000 0.000 0.000 0.000 0.000 x Unknown
10/11/2018 03:30 AM 53.96 44.60 33.62 75.02 49.82 46.0 Not Reported 2.68 W 2.01 W 4.92 NW No 0.000 No Precipitation 10/06/2018 06:42 AM 10/06/2018 06:47 AM 0.000 0.000 0.000 0.000 0.000 x Unknown
10/11/2018 03:45 AM 50.72 43.70 35.42 75.02 49.82 55.0 Not Reported 0.22 S 1.12 SW 3.80 NW No 0.000 No Precipitation 10/06/2018 06:42 AM 10/06/2018 06:47 AM 0.000 0.000 0.000 0.000 0.000 x Unknown
10/11/2018 04:00 AM 50.54 43.16 34.52 75.02 49.64 53.0 Not Reported 0.89 W 0.89 SE 2.24 N No 0.000 No Precipitation 10/06/2018 06:42 AM 10/06/2018 06:47 AM 0.000 0.000 0.000 0.000 0.000 x Unknown
10/11/2018 04:23 AM 50.00 x 33.44 75.02 49.10 52.0 Not Reported 0.89 W 2.24 W 1.79 SE No 0.000 No Precipitation 10/06/2018 06:42 AM 10/06/2018 06:47 AM 0.000 0.000 0.000 0.000 0.000 x Unknown
10/11/2018 02:00 PM 69.62 52.34 35.06 70.16 69.62 27.0 Not Reported 4.92 NW 3.58 N 9.40 NW No 0.000 No Precipitation 10/06/2018 06:42 AM 10/06/2018 06:47 AM 0.000 0.000 0.000 0.000 0.000 x Unknown
10/11/2018 02:15 PM 71.42 53.24 35.60 71.60 69.62 26.0 Not Reported 7.83 NW 10.51 NW 7.61 NW No 0.000 No Precipitation 10/11/2018 01:08 PM 10/11/2018 01:13 PM 0.035 0.035 0.035 0.035 0.035 x Unknown
10/11/2018 02:30 PM 72.14 53.78 35.96 72.14 69.62 26.0 Not Reported 6.04 N 5.59 N 7.16 NW No 0.000 No Precipitation 10/11/2018 01:08 PM 10/11/2018 01:13 PM 0.035 0.035 0.035 0.035 0.035 x Unknown
10/11/2018 02:45 PM 72.14 53.60 35.60 72.68 69.62 26.0 Not Reported 6.71 NW 4.25 NW 10.74 NW No 0.000 No Precipitation 10/11/2018 01:08 PM 10/11/2018 01:13 PM 0.035 0.035 0.035 0.035 0.035 x Unknown
10/11/2018 03:00 PM 72.50 53.42 34.70 72.68 69.62 24.0 Not Reported 3.36 NW 2.91 N 10.51 N No 0.000 No Precipitation 10/11/2018 01:08 PM 10/11/2018 01:13 PM 0.035 0.035 0.035 0.035 0.035 x Unknown
10/11/2018 03:15 PM 72.14 53.06 33.62 72.86 69.62 24.0 Not Reported 5.59 N 2.68 NW 8.95 NW No 0.000 No Precipitation 10/11/2018 01:08 PM 10/11/2018 01:13 PM 0.000 0.035 0.035 0.035 0.035 x Unknown
10/11/2018 03:30 PM 73.76 53.42 32.72 73.76 69.62 22.0 Not Reported 5.59 NW 5.37 NW 10.96 NW No 0.000 No Precipitation 10/11/2018 01:08 PM 10/11/2018 01:13 PM 0.000 0.035 0.035 0.035 0.035 x Unknown
10/11/2018 03:45 PM 73.58 53.42 33.08 73.94 69.62 22.0 Not Reported 4.47 NW 2.91 N 11.63 N No 0.000 No Precipitation 10/11/2018 01:08 PM 10/11/2018 01:13 PM 0.000 0.035 0.035 0.035 0.035 x Unknown
10/11/2018 04:00 PM 72.68 52.88 32.18 73.94 69.62 22.0 Not Reported 9.62 N 5.14 N 12.08 N No 0.000 No Precipitation 10/11/2018 01:08 PM 10/11/2018 01:13 PM 0.000 0.035 0.035 0.035 0.035 x Unknown
10/11/2018 04:15 PM 72.50 52.52 31.64 73.94 69.62 21.0 Not Reported 8.50 NW 5.59 N 15.66 NW No 0.000 No Precipitation 10/11/2018 01:08 PM 10/11/2018 01:13 PM 0.000 0.035 0.035 0.035 0.035 x Unknown
10/11/2018 04:30 PM 72.50 52.52 31.82 73.94 69.62 22.0 Not Reported 4.70 NW 2.24 W 9.62 N No 0.000 No Precipitation 10/11/2018 01:08 PM 10/11/2018 01:13 PM 0.000 0.035 0.035 0.035 0.035 x Unknown
10/11/2018 04:45 PM 72.50 52.70 32.00 73.94 69.62 22.0 Not Reported 4.03 NW 3.80 NW 11.41 NW No 0.000 No Precipitation 10/11/2018 01:08 PM 10/11/2018 01:13 PM 0.000 0.035 0.035 0.035 0.035 x Unknown
10/11/2018 05:00 PM 72.86 52.70 31.82 73.94 69.62 21.0 Not Reported 2.01 W 2.46 SW 4.92 SW No 0.000 No Precipitation 10/11/2018 01:08 PM 10/11/2018 01:13 PM 0.000 0.035 0.035 0.035 0.035 x Unknown
10/11/2018 05:15 PM 72.50 52.70 32.00 73.94 69.62 22.0 Not Reported 5.14 N 4.70 E 7.61 NW No 0.000 No Precipitation 10/11/2018 01:08 PM 10/11/2018 01:13 PM 0.000 0.000 0.035 0.035 0.035 x Unknown
10/11/2018 05:30 PM 73.04 53.06 32.36 73.94 69.62 22.0 Not Reported 2.68 N 4.47 W 4.47 W No 0.000 No Precipitation 10/11/2018 01:08 PM 10/11/2018 01:13 PM 0.000 0.000 0.035 0.035 0.035 x Unknown
10/11/2018 05:45 PM 72.68 53.06 32.90 73.94 69.62 23.0 Not Reported 4.70 NW 4.25 NW 4.47 W No 0.000 No Precipitation 10/11/2018 01:08 PM 10/11/2018 01:13 PM 0.000 0.000 0.035 0.035 0.035 x Unknown
10/11/2018 06:00 PM 72.50 52.52 31.46 73.94 69.62 21.0 Not Reported 5.82 NW 3.36 W 8.05 NW No 0.000 No Precipitation 10/11/2018 01:08 PM 10/11/2018 01:13 PM 0.000 0.000 0.035 0.035 0.035 x Unknown
10/11/2018 06:15 PM 71.42 52.16 32.00 73.94 69.62 23.0 Not Reported 3.36 NW 1.79 NW 7.38 NW No 0.000 No Precipitation 10/11/2018 01:08 PM 10/11/2018 01:13 PM 0.000 0.000 0.035 0.035 0.035 x Unknown
10/11/2018 06:30 PM 70.88 52.34 32.90 73.94 69.62 24.0 Not Reported 5.14 NW 4.70 NW 7.16 NW No 0.000 No Precipitation 10/11/2018 01:08 PM 10/11/2018 01:13 PM 0.000 0.000 0.035 0.035 0.035 x Unknown
10/11/2018 06:45 PM 70.70 51.98 32.54 73.94 69.62 24.0 Not Reported 4.70 N 4.47 W 6.71 NW No 0.000 No Precipitation 10/11/2018 01:08 PM 10/11/2018 01:13 PM 0.000 0.000 0.035 0.035 0.035 x Unknown
10/11/2018 07:00 PM 69.08 51.08 32.00 73.94 69.08 24.0 Not Reported 3.36 NW 2.91 N 5.37 NW No 0.000 No Precipitation 10/11/2018 01:08 PM 10/11/2018 01:13 PM 0.000 0.000 0.035 0.035 0.035 x Unknown
10/11/2018 07:15 PM 68.18 50.90 32.54 73.94 68.18 26.0 Not Reported 0.22 NW 1.12 N 6.71 N No 0.000 No Precipitation 10/11/2018 01:08 PM 10/11/2018 01:13 PM 0.000 0.000 0.035 0.035 0.035 x Unknown
10/11/2018 07:30 PM 65.84 49.82 32.18 73.94 65.84 28.0 Not Reported 0.67 SW 0.67 S 3.36 N No 0.000 No Precipitation 10/11/2018 01:08 PM 10/11/2018 01:13 PM 0.000 0.000 0.035 0.035 0.035 x Unknown
10/11/2018 07:45 PM 63.68 49.28 33.62 73.94 63.68 32.0 Not Reported 0.00 N 0.89 SE 1.34 SW No 0.000 No Precipitation 10/11/2018 01:08 PM 10/11/2018 01:13 PM 0.000 0.000 0.035 0.035 0.035 x Unknown
10/11/2018 08:00 PM 62.42 48.74 33.80 73.94 62.42 34.0 Not Reported 0.45 S 0.89 S 1.34 S No 0.000 No Precipitation 10/11/2018 01:08 PM 10/11/2018 01:13 PM 0.000 0.000 0.035 0.035 0.035 x Unknown
10/11/2018 08:15 PM 61.16 48.38 34.52 73.94 60.98 36.0 Not Reported 0.45 W 0.00 S 0.89 SW No 0.000 No Precipitation 10/11/2018 01:08 PM 10/11/2018 01:13 PM 0.000 0.000 0.000 0.035 0.035 x Unknown
10/11/2018 08:30 PM 60.08 47.84 34.34 73.94 60.08 37.0 Not Reported 0.45 E 0.22 NE 1.12 SW No 0.000 No Precipitation 10/11/2018 01:08 PM 10/11/2018 01:13 PM 0.000 0.000 0.000 0.035 0.035 x Unknown
10/11/2018 08:45 PM 59.36 47.30 33.80 73.94 59.36 38.0 Not Reported 0.00 E 1.12 SE 1.57 E No 0.000 No Precipitation 10/11/2018 01:08 PM 10/11/2018 01:13 PM 0.000 0.000 0.000 0.035 0.035 x Unknown
10/11/2018 09:00 PM 58.64 46.76 33.08 73.94 58.46 38.0 Not Reported 0.67 NW 0.00 N 1.79 NW No 0.000 No Precipitation 10/11/2018 01:08 PM 10/11/2018 01:13 PM 0.000 0.000 0.000 0.035 0.035 x Unknown
10/11/2018 09:15 PM 60.44 47.48 32.90 73.94 58.46 35.0 Not Reported 1.57 NW 2.68 NW 2.68 N No 0.000 No Precipitation 10/11/2018 01:08 PM 10/11/2018 01:13 PM 0.000 0.000 0.000 0.035 0.035 x Unknown
10/11/2018 09:30 PM 61.52 48.02 32.90 73.94 58.46 33.0 Not Reported 2.01 NW 2.46 NW 3.13 NW No 0.000 No Precipitation 10/11/2018 01:08 PM 10/11/2018 01:13 PM 0.000 0.000 0.000 0.035 0.035 x Unknown
10/11/2018 09:45 PM 60.80 48.02 33.98 73.94 58.46 36.0 Not Reported 2.24 N 2.68 NE 2.91 NW No 0.000 No Precipitation 10/11/2018 01:08 PM 10/11/2018 01:13 PM 0.000 0.000 0.000 0.035 0.035 x Unknown
10/11/2018 10:00 PM 60.08 47.48 33.26 73.94 58.46 36.0 Not Reported 2.24 N 0.89 N 3.36 N No 0.000 No Precipitation 10/11/2018 01:08 PM 10/11/2018 01:13 PM 0.000 0.000 0.000 0.035 0.035 x Unknown
10/11/2018 10:15 PM 59.00 46.94 33.44 73.94 58.46 37.0 Not Reported 2.46 N 0.89 NE 3.36 N No 0.000 No Precipitation 10/11/2018 01:08 PM 10/11/2018 01:13 PM 0.000 0.000 0.000 0.035 0.035 x Unknown
10/11/2018 10:30 PM 58.10 46.76 34.16 73.94 58.10 40.0 Not Reported 1.12 NW 2.24 N 2.46 NW No 0.000 No Precipitation 10/11/2018 01:08 PM 10/11/2018 01:13 PM 0.000 0.000 0.000 0.035 0.035 x Unknown
10/11/2018 10:45 PM 57.92 46.58 33.62 73.94 57.92 39.0 Not Reported 1.12 N 1.79 NW 3.36 N No 0.000 No Precipitation 10/11/2018 01:08 PM 10/11/2018 01:13 PM 0.000 0.000 0.000 0.035 0.035 x Unknown
10/11/2018 11:00 PM 58.10 46.76 34.16 73.94 57.92 40.0 Not Reported 2.01 NW 2.46 N 4.47 N No 0.000 No Precipitation 10/11/2018 01:08 PM 10/11/2018 01:13 PM 0.000 0.000 0.000 0.035 0.035 x Unknown
10/11/2018 11:15 PM 56.84 46.40 34.34 73.94 56.84 42.0 Not Reported 1.57 N 1.12 NW 2.46 N No 0.000 No Precipitation 10/11/2018 01:08 PM 10/11/2018 01:13 PM 0.000 0.000 0.000 0.035 0.035 x Unknown
10/11/2018 11:30 PM 57.20 46.22 33.98 73.94 56.30 41.0 Not Reported 1.79 N 0.89 NW 2.24 NW No 0.000 No Precipitation 10/11/2018 01:08 PM 10/11/2018 01:13 PM 0.000 0.000 0.000 0.035 0.035 x Unknown
10/11/2018 11:45 PM 56.84 46.40 34.88 73.94 56.30 43.0 Not Reported 1.34 N 0.89 NW 4.03 N No 0.000 No Precipitation 10/11/2018 01:08 PM 10/11/2018 01:13 PM 0.000 0.000 0.000 0.035 0.035 x Unknown